sensor_id;sensor_type;location;lat;lon;timestamp;temperature;humidity
429;DHT22;201;48.758;9.290;2022-08-18T00:02:14;18.60;15.90
429;DHT22;201;48.758;9.290;2022-08-18T00:04:40;18.50;15.80
429;DHT22;201;48.758;9.290;2022-08-18T00:07:15;18.50;15.80
429;DHT22;201;48.758;9.290;2022-08-18T00:09:42;18.40;16.70
429;DHT22;201;48.758;9.290;2022-08-18T00:12:40;18.40;17.00
429;DHT22;201;48.758;9.290;2022-08-18T00:15:11;18.30;16.80
429;DHT22;201;48.758;9.290;2022-08-18T00:17:37;18.20;16.50
429;DHT22;201;48.758;9.290;2022-08-18T00:20:06;18.20;16.80
429;DHT22;201;48.758;9.290;2022-08-18T00:22:33;18.20;16.90
429;DHT22;201;48.758;9.290;2022-08-18T00:24:59;18.20;17.00
429;DHT22;201;48.758;9.290;2022-08-18T00:27:30;18.30;16.70
429;DHT22;201;48.758;9.290;2022-08-18T00:29:59;18.40;16.50
429;DHT22;201;48.758;9.290;2022-08-18T00:32:30;18.40;15.70
429;DHT22;201;48.758;9.290;2022-08-18T00:35:05;18.30;15.70
429;DHT22;201;48.758;9.290;2022-08-18T00:37:31;18.40;15.70
429;DHT22;201;48.758;9.290;2022-08-18T00:39:57;18.40;15.80
429;DHT22;201;48.758;9.290;2022-08-18T00:42:26;18.20;15.60
429;DHT22;201;48.758;9.290;2022-08-18T00:44:52;18.20;15.60
429;DHT22;201;48.758;9.290;2022-08-18T00:47:19;18.20;15.60
429;DHT22;201;48.758;9.290;2022-08-18T00:49:45;18.20;15.60
429;DHT22;201;48.758;9.290;2022-08-18T00:52:14;18.30;15.70
429;DHT22;201;48.758;9.290;2022-08-18T00:54:42;18.40;15.80
429;DHT22;201;48.758;9.290;2022-08-18T00:57:09;18.30;15.70
429;DHT22;201;48.758;9.290;2022-08-18T00:59:36;18.40;15.60
429;DHT22;201;48.758;9.290;2022-08-18T01:02:06;18.50;15.80
429;DHT22;201;48.758;9.290;2022-08-18T01:07:38;18.60;15.20
429;DHT22;201;48.758;9.290;2022-08-18T01:10:07;18.60;15.00
429;DHT22;201;48.758;9.290;2022-08-18T01:12:33;18.60;15.00
429;DHT22;201;48.758;9.290;2022-08-18T01:14:59;18.60;14.80
429;DHT22;201;48.758;9.290;2022-08-18T01:17:25;18.50;15.30
429;DHT22;201;48.758;9.290;2022-08-18T01:20:14;18.60;15.90
429;DHT22;201;48.758;9.290;2022-08-18T01:23:13;18.70;16.00
429;DHT22;201;48.758;9.290;2022-08-18T01:25:40;18.80;16.00
429;DHT22;201;48.758;9.290;2022-08-18T01:28:25;18.90;15.90
429;DHT22;201;48.758;9.290;2022-08-18T01:30:54;18.90;15.20
429;DHT22;201;48.758;9.290;2022-08-18T01:33:25;18.90;15.40
429;DHT22;201;48.758;9.290;2022-08-18T01:35:52;19.00;15.30
429;DHT22;201;48.758;9.290;2022-08-18T01:38:19;19.10;15.20
429;DHT22;201;48.758;9.290;2022-08-18T01:40:45;19.20;15.00
429;DHT22;201;48.758;9.290;2022-08-18T01:43:12;19.20;14.60
429;DHT22;201;48.758;9.290;2022-08-18T01:45:39;19.20;14.50
429;DHT22;201;48.758;9.290;2022-08-18T01:48:06;19.30;14.50
429;DHT22;201;48.758;9.290;2022-08-18T01:50:31;19.30;14.20
429;DHT22;201;48.758;9.290;2022-08-18T01:53:01;19.20;13.60
429;DHT22;201;48.758;9.290;2022-08-18T01:55:30;19.20;13.60
429;DHT22;201;48.758;9.290;2022-08-18T01:57:56;19.30;13.60
429;DHT22;201;48.758;9.290;2022-08-18T02:00:22;19.30;13.50
429;DHT22;201;48.758;9.290;2022-08-18T02:02:49;19.30;13.30
429;DHT22;201;48.758;9.290;2022-08-18T02:05:18;19.30;12.90
429;DHT22;201;48.758;9.290;2022-08-18T02:07:46;19.30;13.10
429;DHT22;201;48.758;9.290;2022-08-18T02:10:12;19.30;13.20
429;DHT22;201;48.758;9.290;2022-08-18T02:12:39;19.30;12.70
429;DHT22;201;48.758;9.290;2022-08-18T02:15:06;19.30;12.80
429;DHT22;201;48.758;9.290;2022-08-18T02:17:40;19.30;13.10
429;DHT22;201;48.758;9.290;2022-08-18T02:20:06;19.30;13.10
429;DHT22;201;48.758;9.290;2022-08-18T02:22:32;19.30;13.00
429;DHT22;201;48.758;9.290;2022-08-18T02:24:58;19.30;12.10
429;DHT22;201;48.758;9.290;2022-08-18T02:27:26;19.30;12.10
429;DHT22;201;48.758;9.290;2022-08-18T02:29:51;19.30;12.30
429;DHT22;201;48.758;9.290;2022-08-18T02:32:17;19.30;12.30
429;DHT22;201;48.758;9.290;2022-08-18T02:34:42;19.30;11.30
429;DHT22;201;48.758;9.290;2022-08-18T02:37:08;19.30;12.60
429;DHT22;201;48.758;9.290;2022-08-18T02:39:35;19.30;12.20
429;DHT22;201;48.758;9.290;2022-08-18T02:42:03;19.30;12.30
429;DHT22;201;48.758;9.290;2022-08-18T02:44:29;19.30;12.20
429;DHT22;201;48.758;9.290;2022-08-18T02:46:56;19.30;12.10
429;DHT22;201;48.758;9.290;2022-08-18T02:49:22;19.30;12.10
429;DHT22;201;48.758;9.290;2022-08-18T02:51:48;19.40;12.40
429;DHT22;201;48.758;9.290;2022-08-18T02:54:15;19.40;11.90
429;DHT22;201;48.758;9.290;2022-08-18T02:56:41;19.40;11.90
429;DHT22;201;48.758;9.290;2022-08-18T02:59:12;19.40;11.70
429;DHT22;201;48.758;9.290;2022-08-18T03:01:42;19.40;11.10
429;DHT22;201;48.758;9.290;2022-08-18T03:04:09;19.30;10.90
429;DHT22;201;48.758;9.290;2022-08-18T03:06:37;19.30;11.00
429;DHT22;201;48.758;9.290;2022-08-18T03:09:05;19.30;10.50
429;DHT22;201;48.758;9.290;2022-08-18T03:11:30;19.30;10.80
429;DHT22;201;48.758;9.290;2022-08-18T03:13:56;19.30;11.40
429;DHT22;201;48.758;9.290;2022-08-18T03:16:23;19.40;11.40
429;DHT22;201;48.758;9.290;2022-08-18T03:18:50;19.40;11.70
429;DHT22;201;48.758;9.290;2022-08-18T03:21:18;19.30;11.40
429;DHT22;201;48.758;9.290;2022-08-18T03:23:49;19.30;11.40
429;DHT22;201;48.758;9.290;2022-08-18T03:26:16;19.20;11.50
429;DHT22;201;48.758;9.290;2022-08-18T03:28:45;19.30;12.10
429;DHT22;201;48.758;9.290;2022-08-18T03:31:12;19.30;12.20
429;DHT22;201;48.758;9.290;2022-08-18T03:33:42;19.30;12.40
429;DHT22;201;48.758;9.290;2022-08-18T03:36:13;19.30;12.50
429;DHT22;201;48.758;9.290;2022-08-18T03:38:41;19.30;12.90
429;DHT22;201;48.758;9.290;2022-08-18T03:41:08;19.30;12.90
429;DHT22;201;48.758;9.290;2022-08-18T03:43:34;19.30;12.70
429;DHT22;201;48.758;9.290;2022-08-18T03:46:09;19.40;12.70
429;DHT22;201;48.758;9.290;2022-08-18T03:48:39;19.30;12.50
429;DHT22;201;48.758;9.290;2022-08-18T03:51:12;19.20;12.40
429;DHT22;201;48.758;9.290;2022-08-18T03:53:38;19.10;12.80
429;DHT22;201;48.758;9.290;2022-08-18T03:56:09;19.00;13.50
429;DHT22;201;48.758;9.290;2022-08-18T03:58:47;19.20;13.90
429;DHT22;201;48.758;9.290;2022-08-18T04:01:16;19.10;13.50
429;DHT22;201;48.758;9.290;2022-08-18T04:03:43;19.10;13.60
429;DHT22;201;48.758;9.290;2022-08-18T04:06:17;19.10;13.60
429;DHT22;201;48.758;9.290;2022-08-18T04:08:44;19.10;13.50
429;DHT22;201;48.758;9.290;2022-08-18T04:11:11;19.10;13.50
429;DHT22;201;48.758;9.290;2022-08-18T04:13:37;19.10;13.60
429;DHT22;201;48.758;9.290;2022-08-18T04:16:04;19.00;13.50
429;DHT22;201;48.758;9.290;2022-08-18T04:18:30;19.00;13.50
429;DHT22;201;48.758;9.290;2022-08-18T04:21:01;18.90;13.40
429;DHT22;201;48.758;9.290;2022-08-18T04:23:27;18.90;13.50
429;DHT22;201;48.758;9.290;2022-08-18T04:25:59;18.80;13.50
429;DHT22;201;48.758;9.290;2022-08-18T04:28:26;18.70;13.50
429;DHT22;201;48.758;9.290;2022-08-18T04:30:52;18.70;13.60
429;DHT22;201;48.758;9.290;2022-08-18T04:33:18;18.70;13.50
429;DHT22;201;48.758;9.290;2022-08-18T04:35:44;18.70;13.40
429;DHT22;201;48.758;9.290;2022-08-18T04:38:12;18.70;13.40
429;DHT22;201;48.758;9.290;2022-08-18T04:40:37;18.80;13.20
429;DHT22;201;48.758;9.290;2022-08-18T04:43:03;18.80;13.30
429;DHT22;201;48.758;9.290;2022-08-18T04:45:29;18.70;13.50
429;DHT22;201;48.758;9.290;2022-08-18T04:47:54;18.60;14.30
429;DHT22;201;48.758;9.290;2022-08-18T04:50:20;18.40;15.00
429;DHT22;201;48.758;9.290;2022-08-18T04:52:45;18.40;15.70
429;DHT22;201;48.758;9.290;2022-08-18T04:55:30;18.50;15.80
429;DHT22;201;48.758;9.290;2022-08-18T04:57:56;18.40;15.70
429;DHT22;201;48.758;9.290;2022-08-18T05:00:23;18.40;15.70
429;DHT22;201;48.758;9.290;2022-08-18T05:02:49;18.60;15.90
429;DHT22;201;48.758;9.290;2022-08-18T05:05:14;18.80;16.00
429;DHT22;201;48.758;9.290;2022-08-18T05:07:46;19.10;16.20
429;DHT22;201;48.758;9.290;2022-08-18T05:10:12;19.30;15.40
429;DHT22;201;48.758;9.290;2022-08-18T05:12:38;19.50;14.50
429;DHT22;201;48.758;9.290;2022-08-18T05:15:07;19.60;13.90
429;DHT22;201;48.758;9.290;2022-08-18T05:17:36;19.80;13.20
429;DHT22;201;48.758;9.290;2022-08-18T05:20:05;19.90;12.40
429;DHT22;201;48.758;9.290;2022-08-18T05:22:39;20.00;11.90
429;DHT22;201;48.758;9.290;2022-08-18T05:25:09;20.10;11.50
429;DHT22;201;48.758;9.290;2022-08-18T05:27:39;20.20;10.40
429;DHT22;201;48.758;9.290;2022-08-18T05:30:07;20.40;9.30
429;DHT22;201;48.758;9.290;2022-08-18T05:32:40;20.60;8.50
429;DHT22;201;48.758;9.290;2022-08-18T05:35:17;20.80;8.70
429;DHT22;201;48.758;9.290;2022-08-18T05:38:54;20.80;8.10
429;DHT22;201;48.758;9.290;2022-08-18T05:40:59;21.00;7.40
429;DHT22;201;48.758;9.290;2022-08-18T05:43:26;21.30;7.00
429;DHT22;201;48.758;9.290;2022-08-18T05:45:52;21.50;6.00
429;DHT22;201;48.758;9.290;2022-08-18T05:48:19;21.60;5.00
429;DHT22;201;48.758;9.290;2022-08-18T05:50:45;21.80;5.40
429;DHT22;201;48.758;9.290;2022-08-18T05:53:15;22.20;3.70
429;DHT22;201;48.758;9.290;2022-08-18T05:55:58;23.00;1.20
429;DHT22;201;48.758;9.290;2022-08-18T05:58:48;23.40;1.00
429;DHT22;201;48.758;9.290;2022-08-18T06:01:31;23.50;1.00
429;DHT22;201;48.758;9.290;2022-08-18T06:04:04;23.30;1.00
429;DHT22;201;48.758;9.290;2022-08-18T06:06:32;23.00;1.00
429;DHT22;201;48.758;9.290;2022-08-18T06:09:16;23.00;1.00
429;DHT22;201;48.758;9.290;2022-08-18T06:11:44;22.90;1.00
429;DHT22;201;48.758;9.290;2022-08-18T06:14:10;23.60;1.00
429;DHT22;201;48.758;9.290;2022-08-18T06:22:12;24.20;1.00
429;DHT22;201;48.758;9.290;2022-08-18T06:30:58;22.30;1.00
429;DHT22;201;48.758;9.290;2022-08-18T06:39:04;23.70;1.00
429;DHT22;201;48.758;9.290;2022-08-18T06:41:38;24.00;1.00
429;DHT22;201;48.758;9.290;2022-08-18T06:46:48;24.90;1.00
429;DHT22;201;48.758;9.290;2022-08-18T06:51:56;25.70;1.00
429;DHT22;201;48.758;9.290;2022-08-18T06:54:27;26.10;1.00
429;DHT22;201;48.758;9.290;2022-08-18T06:56:55;26.00;1.00
429;DHT22;201;48.758;9.290;2022-08-18T06:59:28;25.50;1.00
429;DHT22;201;48.758;9.290;2022-08-18T07:04:41;24.70;1.00
429;DHT22;201;48.758;9.290;2022-08-18T07:07:34;24.50;1.00
429;DHT22;201;48.758;9.290;2022-08-18T07:10:02;23.90;1.00
429;DHT22;201;48.758;9.290;2022-08-18T07:12:29;23.50;1.00
429;DHT22;201;48.758;9.290;2022-08-18T07:14:58;23.20;1.00
429;DHT22;201;48.758;9.290;2022-08-18T07:17:30;22.70;1.00
429;DHT22;201;48.758;9.290;2022-08-18T07:20:17;22.30;1.00
429;DHT22;201;48.758;9.290;2022-08-18T07:22:59;22.20;1.00
429;DHT22;201;48.758;9.290;2022-08-18T07:25:31;22.30;1.00
429;DHT22;201;48.758;9.290;2022-08-18T07:27:57;22.60;1.00
429;DHT22;201;48.758;9.290;2022-08-18T07:30:35;22.60;1.00
429;DHT22;201;48.758;9.290;2022-08-18T07:35:44;22.50;1.00
429;DHT22;201;48.758;9.290;2022-08-18T07:38:16;22.80;1.00
429;DHT22;201;48.758;9.290;2022-08-18T07:40:54;23.00;1.00
429;DHT22;201;48.758;9.290;2022-08-18T07:43:29;23.10;1.00
429;DHT22;201;48.758;9.290;2022-08-18T07:46:09;23.00;1.00
429;DHT22;201;48.758;9.290;2022-08-18T07:48:36;22.90;1.00
429;DHT22;201;48.758;9.290;2022-08-18T07:56:27;22.60;1.00
429;DHT22;201;48.758;9.290;2022-08-18T07:59:06;22.60;1.00
429;DHT22;201;48.758;9.290;2022-08-18T08:07:00;21.90;1.00
429;DHT22;201;48.758;9.290;2022-08-18T08:09:52;21.60;1.00
429;DHT22;201;48.758;9.290;2022-08-18T08:20:56;20.70;4.30
429;DHT22;201;48.758;9.290;2022-08-18T08:31:47;21.00;4.40
429;DHT22;201;48.758;9.290;2022-08-18T08:36:44;21.00;5.00
429;DHT22;201;48.758;9.290;2022-08-18T08:39:35;21.00;4.90
429;DHT22;201;48.758;9.290;2022-08-18T08:42:12;21.10;5.10
429;DHT22;201;48.758;9.290;2022-08-18T08:44:44;21.30;4.70
429;DHT22;201;48.758;9.290;2022-08-18T08:47:35;21.50;4.20
429;DHT22;201;48.758;9.290;2022-08-18T08:50:26;21.80;3.30
429;DHT22;201;48.758;9.290;2022-08-18T08:53:34;22.20;2.30
429;DHT22;201;48.758;9.290;2022-08-18T08:56:06;22.80;1.00
429;DHT22;201;48.758;9.290;2022-08-18T08:58:42;23.20;1.00
429;DHT22;201;48.758;9.290;2022-08-18T09:01:19;23.20;1.00
429;DHT22;201;48.758;9.290;2022-08-18T09:03:57;23.60;1.00
429;DHT22;201;48.758;9.290;2022-08-18T09:06:53;24.30;1.00
429;DHT22;201;48.758;9.290;2022-08-18T09:09:49;25.00;1.00
429;DHT22;201;48.758;9.290;2022-08-18T09:18:47;26.40;1.00
429;DHT22;201;48.758;9.290;2022-08-18T09:21:38;26.70;1.00
429;DHT22;201;48.758;9.290;2022-08-18T09:24:07;27.80;1.00
429;DHT22;201;48.758;9.290;2022-08-18T09:37:53;29.90;1.00
429;DHT22;201;48.758;9.290;2022-08-18T09:41:11;32.70;1.00
429;DHT22;201;48.758;9.290;2022-08-18T09:47:00;35.90;1.00
429;DHT22;201;48.758;9.290;2022-08-18T09:51:55;35.40;1.00
429;DHT22;201;48.758;9.290;2022-08-18T09:54:30;34.00;1.00
429;DHT22;201;48.758;9.290;2022-08-18T09:57:16;34.40;1.00
429;DHT22;201;48.758;9.290;2022-08-18T10:05:21;35.10;1.00
429;DHT22;201;48.758;9.290;2022-08-18T10:10:50;36.20;1.00
429;DHT22;201;48.758;9.290;2022-08-18T10:16:13;37.70;1.00
429;DHT22;201;48.758;9.290;2022-08-18T10:21:24;36.90;1.00
429;DHT22;201;48.758;9.290;2022-08-18T10:29:05;35.30;1.00
429;DHT22;201;48.758;9.290;2022-08-18T10:34:45;34.80;1.00
429;DHT22;201;48.758;9.290;2022-08-18T10:37:37;34.10;1.00
429;DHT22;201;48.758;9.290;2022-08-18T10:42:41;33.40;1.00
429;DHT22;201;48.758;9.290;2022-08-18T10:47:39;33.60;1.00
429;DHT22;201;48.758;9.290;2022-08-18T10:50:21;33.00;1.00
429;DHT22;201;48.758;9.290;2022-08-18T10:58:52;32.50;1.00
429;DHT22;201;48.758;9.290;2022-08-18T11:06:58;34.70;1.00
429;DHT22;201;48.758;9.290;2022-08-18T11:09:27;33.10;1.00
429;DHT22;201;48.758;9.290;2022-08-18T11:11:56;32.60;1.00
429;DHT22;201;48.758;9.290;2022-08-18T11:19:35;30.20;1.00
429;DHT22;201;48.758;9.290;2022-08-18T11:22:02;29.70;1.00
429;DHT22;201;48.758;9.290;2022-08-18T11:24:29;29.30;1.00
429;DHT22;201;48.758;9.290;2022-08-18T11:27:06;29.30;1.00
429;DHT22;201;48.758;9.290;2022-08-18T11:29:41;30.10;1.00
429;DHT22;201;48.758;9.290;2022-08-18T11:32:42;30.40;1.00
429;DHT22;201;48.758;9.290;2022-08-18T11:35:26;29.50;1.00
429;DHT22;201;48.758;9.290;2022-08-18T11:37:59;28.80;1.00
429;DHT22;201;48.758;9.290;2022-08-18T11:40:37;28.60;1.00
429;DHT22;201;48.758;9.290;2022-08-18T11:51:09;28.20;1.00
429;DHT22;201;48.758;9.290;2022-08-18T11:53:49;27.80;1.00
429;DHT22;201;48.758;9.290;2022-08-18T11:56:35;27.40;1.00
429;DHT22;201;48.758;9.290;2022-08-18T11:59:07;27.20;1.00
429;DHT22;201;48.758;9.290;2022-08-18T12:01:57;27.30;1.00
429;DHT22;201;48.758;9.290;2022-08-18T12:04:28;27.70;1.00
429;DHT22;201;48.758;9.290;2022-08-18T12:12:16;27.10;1.00
429;DHT22;201;48.758;9.290;2022-08-18T12:17:37;27.00;1.00
429;DHT22;201;48.758;9.290;2022-08-18T12:20:03;26.80;1.00
429;DHT22;201;48.758;9.290;2022-08-18T12:22:33;27.30;1.00
429;DHT22;201;48.758;9.290;2022-08-18T12:25:00;27.40;1.00
429;DHT22;201;48.758;9.290;2022-08-18T12:27:27;27.70;1.00
429;DHT22;201;48.758;9.290;2022-08-18T12:29:55;27.70;1.00
429;DHT22;201;48.758;9.290;2022-08-18T12:32:22;27.90;1.00
429;DHT22;201;48.758;9.290;2022-08-18T12:34:48;27.50;1.00
429;DHT22;201;48.758;9.290;2022-08-18T12:37:16;27.30;1.00
429;DHT22;201;48.758;9.290;2022-08-18T12:39:42;27.40;1.00
429;DHT22;201;48.758;9.290;2022-08-18T12:42:09;27.10;1.00
429;DHT22;201;48.758;9.290;2022-08-18T12:44:35;27.10;1.00
429;DHT22;201;48.758;9.290;2022-08-18T12:47:02;27.10;1.00
429;DHT22;201;48.758;9.290;2022-08-18T12:49:29;27.40;1.00
429;DHT22;201;48.758;9.290;2022-08-18T12:51:55;27.70;1.00
429;DHT22;201;48.758;9.290;2022-08-18T12:54:21;27.40;1.00
429;DHT22;201;48.758;9.290;2022-08-18T12:56:53;27.20;1.00
429;DHT22;201;48.758;9.290;2022-08-18T12:59:19;27.40;1.00
429;DHT22;201;48.758;9.290;2022-08-18T13:01:45;27.50;1.00
429;DHT22;201;48.758;9.290;2022-08-18T13:04:11;27.60;1.00
429;DHT22;201;48.758;9.290;2022-08-18T13:06:39;27.60;1.00
429;DHT22;201;48.758;9.290;2022-08-18T13:09:06;27.50;1.00
429;DHT22;201;48.758;9.290;2022-08-18T13:11:31;27.40;1.00
429;DHT22;201;48.758;9.290;2022-08-18T13:13:57;27.40;1.00
429;DHT22;201;48.758;9.290;2022-08-18T13:16:24;27.20;1.00
429;DHT22;201;48.758;9.290;2022-08-18T13:18:50;27.20;1.00
429;DHT22;201;48.758;9.290;2022-08-18T13:21:16;27.30;1.00
429;DHT22;201;48.758;9.290;2022-08-18T13:23:43;27.50;1.00
429;DHT22;201;48.758;9.290;2022-08-18T13:26:19;27.30;1.00
429;DHT22;201;48.758;9.290;2022-08-18T13:28:46;27.50;1.00
429;DHT22;201;48.758;9.290;2022-08-18T13:31:11;27.90;1.00
429;DHT22;201;48.758;9.290;2022-08-18T13:33:37;28.20;1.00
429;DHT22;201;48.758;9.290;2022-08-18T13:36:04;28.60;1.00
429;DHT22;201;48.758;9.290;2022-08-18T13:38:30;28.80;1.00
429;DHT22;201;48.758;9.290;2022-08-18T13:40:57;28.90;1.00
429;DHT22;201;48.758;9.290;2022-08-18T13:43:31;29.10;1.00
429;DHT22;201;48.758;9.290;2022-08-18T13:45:56;29.00;1.00
429;DHT22;201;48.758;9.290;2022-08-18T13:48:23;29.00;1.00
429;DHT22;201;48.758;9.290;2022-08-18T13:50:51;29.00;1.00
429;DHT22;201;48.758;9.290;2022-08-18T13:53:17;29.00;1.00
429;DHT22;201;48.758;9.290;2022-08-18T13:55:44;29.00;1.00
429;DHT22;201;48.758;9.290;2022-08-18T13:58:10;28.70;1.00
429;DHT22;201;48.758;9.290;2022-08-18T14:00:37;28.50;1.00
429;DHT22;201;48.758;9.290;2022-08-18T14:03:04;28.70;1.00
429;DHT22;201;48.758;9.290;2022-08-18T14:05:34;28.90;1.00
429;DHT22;201;48.758;9.290;2022-08-18T14:07:59;28.60;1.00
429;DHT22;201;48.758;9.290;2022-08-18T14:10:25;28.50;1.00
429;DHT22;201;48.758;9.290;2022-08-18T14:12:54;28.30;1.00
429;DHT22;201;48.758;9.290;2022-08-18T14:15:21;28.30;1.00
429;DHT22;201;48.758;9.290;2022-08-18T14:17:47;28.40;1.00
429;DHT22;201;48.758;9.290;2022-08-18T14:20:13;28.40;1.00
429;DHT22;201;48.758;9.290;2022-08-18T14:22:59;28.20;1.00
429;DHT22;201;48.758;9.290;2022-08-18T14:25:43;28.20;1.00
429;DHT22;201;48.758;9.290;2022-08-18T14:28:29;28.10;1.00
429;DHT22;201;48.758;9.290;2022-08-18T14:30:56;27.80;1.00
429;DHT22;201;48.758;9.290;2022-08-18T14:33:24;27.70;1.00
429;DHT22;201;48.758;9.290;2022-08-18T14:35:50;27.80;1.00
429;DHT22;201;48.758;9.290;2022-08-18T14:38:16;27.70;1.00
429;DHT22;201;48.758;9.290;2022-08-18T14:40:43;27.80;1.00
429;DHT22;201;48.758;9.290;2022-08-18T14:43:11;27.90;1.00
429;DHT22;201;48.758;9.290;2022-08-18T14:45:38;28.20;1.00
429;DHT22;201;48.758;9.290;2022-08-18T14:48:05;28.20;1.00
429;DHT22;201;48.758;9.290;2022-08-18T14:50:31;27.90;1.00
429;DHT22;201;48.758;9.290;2022-08-18T14:52:57;27.70;1.00
429;DHT22;201;48.758;9.290;2022-08-18T14:55:22;27.90;1.00
429;DHT22;201;48.758;9.290;2022-08-18T14:57:48;28.00;1.00
429;DHT22;201;48.758;9.290;2022-08-18T15:00:17;28.00;1.00
429;DHT22;201;48.758;9.290;2022-08-18T15:02:46;27.80;1.00
429;DHT22;201;48.758;9.290;2022-08-18T15:05:13;27.90;1.00
429;DHT22;201;48.758;9.290;2022-08-18T15:07:39;28.10;1.00
429;DHT22;201;48.758;9.290;2022-08-18T15:10:10;28.20;1.00
429;DHT22;201;48.758;9.290;2022-08-18T15:12:36;28.30;1.00
429;DHT22;201;48.758;9.290;2022-08-18T15:15:03;28.50;1.00
429;DHT22;201;48.758;9.290;2022-08-18T15:17:29;28.80;1.00
429;DHT22;201;48.758;9.290;2022-08-18T15:19:56;28.40;1.00
429;DHT22;201;48.758;9.290;2022-08-18T15:22:22;27.80;1.00
429;DHT22;201;48.758;9.290;2022-08-18T15:25:08;27.40;1.00
429;DHT22;201;48.758;9.290;2022-08-18T15:27:52;27.40;1.00
429;DHT22;201;48.758;9.290;2022-08-18T15:30:18;27.50;1.00
429;DHT22;201;48.758;9.290;2022-08-18T15:32:45;27.30;1.00
429;DHT22;201;48.758;9.290;2022-08-18T15:35:12;27.20;1.00
429;DHT22;201;48.758;9.290;2022-08-18T15:37:41;27.10;1.00
429;DHT22;201;48.758;9.290;2022-08-18T15:40:11;27.20;1.00
429;DHT22;201;48.758;9.290;2022-08-18T15:42:49;27.10;1.00
429;DHT22;201;48.758;9.290;2022-08-18T15:45:21;26.90;1.00
429;DHT22;201;48.758;9.290;2022-08-18T15:47:49;27.00;1.00
429;DHT22;201;48.758;9.290;2022-08-18T15:50:15;26.80;1.00
429;DHT22;201;48.758;9.290;2022-08-18T15:52:49;26.60;1.00
429;DHT22;201;48.758;9.290;2022-08-18T15:55:16;26.60;1.00
429;DHT22;201;48.758;9.290;2022-08-18T15:57:42;26.50;1.00
429;DHT22;201;48.758;9.290;2022-08-18T16:00:09;26.40;1.00
429;DHT22;201;48.758;9.290;2022-08-18T16:02:36;26.40;1.00
429;DHT22;201;48.758;9.290;2022-08-18T16:05:04;26.50;1.00
429;DHT22;201;48.758;9.290;2022-08-18T16:07:30;26.60;1.00
429;DHT22;201;48.758;9.290;2022-08-18T16:09:55;26.40;1.00
429;DHT22;201;48.758;9.290;2022-08-18T16:12:21;26.50;1.00
429;DHT22;201;48.758;9.290;2022-08-18T16:14:46;26.70;1.00
429;DHT22;201;48.758;9.290;2022-08-18T16:17:12;26.80;1.00
429;DHT22;201;48.758;9.290;2022-08-18T16:19:38;26.80;1.00
429;DHT22;201;48.758;9.290;2022-08-18T16:22:04;26.80;1.00
429;DHT22;201;48.758;9.290;2022-08-18T16:24:31;26.70;1.00
429;DHT22;201;48.758;9.290;2022-08-18T16:26:57;26.50;1.00
429;DHT22;201;48.758;9.290;2022-08-18T16:29:23;26.60;1.00
429;DHT22;201;48.758;9.290;2022-08-18T16:31:48;26.50;1.00
429;DHT22;201;48.758;9.290;2022-08-18T16:34:15;26.60;1.00
429;DHT22;201;48.758;9.290;2022-08-18T16:36:41;26.50;1.00
429;DHT22;201;48.758;9.290;2022-08-18T16:39:06;26.40;1.00
429;DHT22;201;48.758;9.290;2022-08-18T16:41:32;26.40;1.00
429;DHT22;201;48.758;9.290;2022-08-18T16:43:57;26.30;1.00
429;DHT22;201;48.758;9.290;2022-08-18T16:46:26;26.30;1.00
429;DHT22;201;48.758;9.290;2022-08-18T16:48:54;26.10;1.00
429;DHT22;201;48.758;9.290;2022-08-18T16:51:22;26.10;1.00
429;DHT22;201;48.758;9.290;2022-08-18T16:53:49;26.20;1.00
429;DHT22;201;48.758;9.290;2022-08-18T16:56:20;26.10;1.00
429;DHT22;201;48.758;9.290;2022-08-18T16:58:46;26.00;1.00
429;DHT22;201;48.758;9.290;2022-08-18T17:01:30;25.80;1.00
429;DHT22;201;48.758;9.290;2022-08-18T17:04:18;25.50;1.00
429;DHT22;201;48.758;9.290;2022-08-18T17:06:44;25.40;1.00
429;DHT22;201;48.758;9.290;2022-08-18T17:09:10;25.30;1.00
429;DHT22;201;48.758;9.290;2022-08-18T17:11:37;25.30;1.00
429;DHT22;201;48.758;9.290;2022-08-18T17:14:04;25.30;1.00
429;DHT22;201;48.758;9.290;2022-08-18T17:16:32;25.30;1.00
429;DHT22;201;48.758;9.290;2022-08-18T17:18:58;25.30;1.00
429;DHT22;201;48.758;9.290;2022-08-18T17:21:27;25.20;1.00
429;DHT22;201;48.758;9.290;2022-08-18T17:23:54;25.10;1.00
429;DHT22;201;48.758;9.290;2022-08-18T17:29:01;25.00;1.00
429;DHT22;201;48.758;9.290;2022-08-18T17:31:29;24.80;1.00
429;DHT22;201;48.758;9.290;2022-08-18T17:34:04;24.70;1.00
429;DHT22;201;48.758;9.290;2022-08-18T17:36:51;24.60;1.00
429;DHT22;201;48.758;9.290;2022-08-18T17:39:22;24.50;1.00
429;DHT22;201;48.758;9.290;2022-08-18T17:41:48;24.40;1.00
429;DHT22;201;48.758;9.290;2022-08-18T17:44:33;24.30;1.00
429;DHT22;201;48.758;9.290;2022-08-18T17:47:00;24.30;1.00
429;DHT22;201;48.758;9.290;2022-08-18T17:49:41;24.30;1.00
429;DHT22;201;48.758;9.290;2022-08-18T17:52:27;24.30;1.00
429;DHT22;201;48.758;9.290;2022-08-18T17:55:04;24.20;1.00
429;DHT22;201;48.758;9.290;2022-08-18T17:57:33;24.10;1.00
429;DHT22;201;48.758;9.290;2022-08-18T18:00:06;24.00;1.00
429;DHT22;201;48.758;9.290;2022-08-18T18:02:34;24.00;1.00
429;DHT22;201;48.758;9.290;2022-08-18T18:05:02;24.00;1.00
429;DHT22;201;48.758;9.290;2022-08-18T18:07:34;23.90;1.00
429;DHT22;201;48.758;9.290;2022-08-18T18:12:30;23.80;1.00
429;DHT22;201;48.758;9.290;2022-08-18T18:14:59;23.70;1.00
429;DHT22;201;48.758;9.290;2022-08-18T18:17:29;23.50;1.00
429;DHT22;201;48.758;9.290;2022-08-18T18:20:23;23.50;1.00
429;DHT22;201;48.758;9.290;2022-08-18T18:22:50;23.50;1.00
429;DHT22;201;48.758;9.290;2022-08-18T18:25:30;23.40;1.00
429;DHT22;201;48.758;9.290;2022-08-18T18:27:56;23.30;1.00
429;DHT22;201;48.758;9.290;2022-08-18T18:30:23;23.30;1.00
429;DHT22;201;48.758;9.290;2022-08-18T18:33:03;23.30;1.00
429;DHT22;201;48.758;9.290;2022-08-18T18:35:56;23.30;1.00
429;DHT22;201;48.758;9.290;2022-08-18T18:38:33;23.20;1.00
429;DHT22;201;48.758;9.290;2022-08-18T18:41:02;23.20;1.00
429;DHT22;201;48.758;9.290;2022-08-18T18:43:37;23.30;1.00
429;DHT22;201;48.758;9.290;2022-08-18T18:51:39;23.20;1.00
429;DHT22;201;48.758;9.290;2022-08-18T18:56:59;23.10;1.00
429;DHT22;201;48.758;9.290;2022-08-18T19:02:19;23.00;1.00
429;DHT22;201;48.758;9.290;2022-08-18T19:07:55;23.00;1.00
429;DHT22;201;48.758;9.290;2022-08-18T19:12:57;22.80;1.00
429;DHT22;201;48.758;9.290;2022-08-18T19:15:26;22.80;1.00
429;DHT22;201;48.758;9.290;2022-08-18T19:20:26;22.60;1.00
429;DHT22;201;48.758;9.290;2022-08-18T19:25:26;22.60;1.00
429;DHT22;201;48.758;9.290;2022-08-18T19:28:06;22.60;1.00
429;DHT22;201;48.758;9.290;2022-08-18T19:30:36;22.60;1.00
429;DHT22;201;48.758;9.290;2022-08-18T19:33:04;22.70;1.00
429;DHT22;201;48.758;9.290;2022-08-18T19:35:52;22.70;1.00
429;DHT22;201;48.758;9.290;2022-08-18T19:38:41;22.60;1.00
429;DHT22;201;48.758;9.290;2022-08-18T19:41:19;22.60;1.00
429;DHT22;201;48.758;9.290;2022-08-18T19:44:29;22.50;1.00
429;DHT22;201;48.758;9.290;2022-08-18T19:47:19;22.40;1.00
429;DHT22;201;48.758;9.290;2022-08-18T19:52:59;22.50;1.00
429;DHT22;201;48.758;9.290;2022-08-18T20:00:58;22.70;1.00
429;DHT22;201;48.758;9.290;2022-08-18T20:03:50;22.70;1.00
429;DHT22;201;48.758;9.290;2022-08-18T20:07:07;22.80;1.00
429;DHT22;201;48.758;9.290;2022-08-18T20:14:42;22.70;1.00
429;DHT22;201;48.758;9.290;2022-08-18T20:24:52;22.60;1.00
429;DHT22;201;48.758;9.290;2022-08-18T20:35:38;22.60;1.00